Time;durP1;ratioP1;P1;durP2;ratioP2;P2;SDS_P1;SDS_P2;PMS_P1;PMS_P2;Temp;Humidity;BMP_temperature;BMP_pressure;BME280_temperature;BME280_humidity;BME280_pressure;Samples;Min_cycle;Max_cycle;Signal;HPM_P1;HPM_P2
2021/10/14 00:02:24;;;;;;;13.77;7.68;;;9.40;79.10;;;;;;5092332;28;20475;-76
2021/10/14 00:04:49;;;;;;;11.93;7.30;;;9.40;79.20;;;;;;5080109;28;20553;-77
2021/10/14 00:07:15;;;;;;;13.00;7.75;;;9.30;79.20;;;;;;5079926;28;20037;-77
2021/10/14 00:09:41;;;;;;;14.00;7.63;;;9.30;79.20;;;;;;5091048;28;20099;-77
2021/10/14 00:12:07;;;;;;;12.35;7.07;;;9.30;79.20;;;;;;5079997;28;20074;-77
2021/10/14 00:14:33;;;;;;;11.88;6.93;;;9.30;79.10;;;;;;5078802;28;20024;-77
2021/10/14 00:16:59;;;;;;;11.63;7.10;;;9.30;79.30;;;;;;5079693;28;20422;-77
2021/10/14 00:19:25;;;;;;;12.57;7.55;;;9.20;79.40;;;;;;5079819;28;20017;-77
2021/10/14 00:21:50;;;;;;;11.02;7.00;;;9.20;79.40;;;;;;5093274;28;20376;-77
2021/10/14 00:24:16;;;;;;;12.25;6.55;;;9.20;79.30;;;;;;5078296;28;20055;-77
2021/10/14 00:26:42;;;;;;;13.32;7.28;;;9.20;79.50;;;;;;5079593;28;20028;-77
2021/10/14 00:29:08;;;;;;;14.65;7.78;;;9.20;79.40;;;;;;5079753;28;20101;-77
2021/10/14 00:31:34;;;;;;;11.27;7.20;;;9.10;79.50;;;;;;5078159;28;20025;-77
2021/10/14 00:33:59;;;;;;;11.48;7.18;;;9.10;79.60;;;;;;5099019;28;20024;-77
2021/10/14 00:36:25;;;;;;;9.88;5.95;;;9.10;79.70;;;;;;5081314;28;20056;-77
2021/10/14 00:38:51;;;;;;;10.07;6.60;;;9.10;79.30;;;;;;5078263;28;20394;-77
2021/10/14 00:41:17;;;;;;;10.82;5.95;;;9.10;79.40;;;;;;5078052;28;20025;-77
2021/10/14 00:43:43;;;;;;;14.35;6.47;;;9.00;79.20;;;;;;5095629;28;20039;-77
2021/10/14 00:46:16;;;;;;;10.52;6.20;;;9.00;79.30;;;;;;5081084;28;20032;-77
2021/10/14 00:48:43;;;;;;;9.98;6.00;;;9.00;79.60;;;;;;5079165;28;20028;-77
2021/10/14 00:51:09;;;;;;;11.27;6.28;;;9.00;79.50;;;;;;5079159;28;20088;-77
2021/10/14 00:53:38;;;;;;;10.30;5.63;;;9.00;79.40;;;;;;5079094;28;20020;-77
2021/10/14 00:56:06;;;;;;;11.25;6.85;;;8.90;79.40;;;;;;5079148;28;20044;-77
2021/10/14 00:58:33;;;;;;;10.98;6.03;;;8.90;79.30;;;;;;5079200;28;20074;-77
2021/10/14 01:01:01;;;;;;;10.00;5.55;;;8.90;79.40;;;;;;5082272;28;20095;-77
2021/10/14 01:03:27;;;;;;;14.25;6.00;;;8.90;79.30;;;;;;5088631;28;20020;-77
2021/10/14 01:05:53;;;;;;;10.63;6.00;;;8.90;79.30;;;;;;5078857;28;20542;-77
2021/10/14 01:08:19;;;;;;;11.20;6.40;;;8.90;79.40;;;;;;5089781;28;20078;-77
2021/10/14 01:10:45;;;;;;;12.18;6.00;;;8.90;79.40;;;;;;5081385;28;20031;-77
2021/10/14 01:13:11;;;;;;;10.63;6.45;;;8.90;79.30;;;;;;5078762;28;20069;-77
2021/10/14 01:15:37;;;;;;;11.73;6.03;;;8.80;79.60;;;;;;5078558;28;20021;-77
2021/10/14 01:18:03;;;;;;;9.07;6.13;;;8.80;79.50;;;;;;5077194;28;20542;-77
2021/10/14 01:20:29;;;;;;;10.18;6.43;;;8.80;79.50;;;;;;5083104;28;20062;-77
2021/10/14 01:22:55;;;;;;;10.10;6.25;;;8.70;79.70;;;;;;5087378;28;20013;-77
2021/10/14 01:25:21;;;;;;;11.98;5.90;;;8.70;79.60;;;;;;5078383;28;20394;-77
2021/10/14 01:27:48;;;;;;;9.68;5.90;;;8.70;79.60;;;;;;5078851;28;20027;-77
2021/10/14 01:30:15;;;;;;;9.65;5.97;;;8.70;79.70;;;;;;5078374;28;20068;-77
2021/10/14 01:32:40;;;;;;;9.18;6.35;;;8.70;79.80;;;;;;5086880;28;20028;-77
2021/10/14 01:35:07;;;;;;;9.18;6.00;;;8.60;79.90;;;;;;5092972;28;20024;-77
2021/10/14 01:37:33;;;;;;;9.30;6.07;;;8.60;80.00;;;;;;5078379;28;20434;-77
2021/10/14 01:40:00;;;;;;;11.07;6.40;;;8.60;80.20;;;;;;5078019;28;20028;-77
2021/10/14 01:42:26;;;;;;;8.70;6.05;;;8.60;80.30;;;;;;5083717;28;20061;-77
2021/10/14 01:44:51;;;;;;;11.80;6.75;;;8.50;80.30;;;;;;5092288;28;20067;-77
2021/10/14 01:47:17;;;;;;;9.98;6.72;;;8.50;80.10;;;;;;5076643;28;20040;-77
2021/10/14 01:49:43;;;;;;;10.48;6.40;;;8.50;80.10;;;;;;5076818;28;20451;-77
2021/10/14 01:52:09;;;;;;;12.07;6.80;;;8.50;80.20;;;;;;5078109;28;20021;-76
2021/10/14 01:54:35;;;;;;;11.82;7.03;;;8.50;80.30;;;;;;5076520;28;20028;-77
2021/10/14 01:57:44;;;;;;;11.38;7.32;;;8.40;80.30;;;;;;5078133;28;20103;-77
2021/10/14 02:00:10;;;;;;;11.98;6.65;;;8.40;80.30;;;;;;5077783;28;20024;-76
2021/10/14 02:02:36;;;;;;;13.95;7.22;;;8.40;80.90;;;;;;5090869;28;20017;-77
2021/10/14 02:05:02;;;;;;;11.02;7.03;;;8.40;80.30;;;;;;5077957;28;20562;-77
2021/10/14 02:07:28;;;;;;;13.43;7.70;;;8.30;80.50;;;;;;5079692;28;20024;-76
2021/10/14 02:09:53;;;;;;;11.38;6.32;;;8.30;80.50;;;;;;5087255;28;20471;-76
2021/10/14 02:12:19;;;;;;;11.63;6.60;;;8.20;80.60;;;;;;5077608;28;20024;-77
2021/10/14 02:14:45;;;;;;;10.77;6.68;;;8.20;80.70;;;;;;5077758;28;20078;-76
2021/10/14 02:17:11;;;;;;;10.40;6.35;;;8.20;80.40;;;;;;5077539;28;20020;-76
2021/10/14 02:19:37;;;;;;;10.43;6.25;;;8.20;80.50;;;;;;5077634;28;20025;-76
2021/10/14 02:22:03;;;;;;;10.70;6.70;;;8.10;80.50;;;;;;5091221;28;20026;-77
2021/10/14 02:24:29;;;;;;;12.05;6.00;;;8.10;80.50;;;;;;5075907;28;20497;-76
2021/10/14 02:26:54;;;;;;;9.50;5.90;;;8.10;80.70;;;;;;5077418;28;20103;-76
2021/10/14 02:29:20;;;;;;;10.55;5.70;;;8.10;80.80;;;;;;5077626;28;20475;-76
2021/10/14 02:31:46;;;;;;;9.90;5.85;;;8.10;80.60;;;;;;5076737;28;20028;-76
2021/10/14 02:34:12;;;;;;;8.07;4.68;;;8.10;80.50;;;;;;5097662;28;20036;-77
2021/10/14 02:36:38;;;;;;;9.95;5.70;;;8.00;80.60;;;;;;5077860;28;20423;-77
2021/10/14 02:39:04;;;;;;;10.32;5.65;;;8.00;80.70;;;;;;5076242;28;20054;-77
2021/10/14 02:41:30;;;;;;;9.45;5.68;;;8.00;80.70;;;;;;5077282;28;20032;-77
2021/10/14 02:43:56;;;;;;;9.18;5.25;;;8.00;80.80;;;;;;5095264;28;20017;-76
2021/10/14 02:46:22;;;;;;;11.60;6.25;;;8.00;81.00;;;;;;5078603;28;20047;-76
2021/10/14 02:48:48;;;;;;;10.23;5.75;;;8.00;81.10;;;;;;5077119;28;20020;-77
2021/10/14 02:51:13;;;;;;;12.55;5.55;;;7.90;81.00;;;;;;5077120;28;20020;-76
2021/10/14 02:53:39;;;;;;;12.05;5.68;;;7.90;81.30;;;;;;5077145;28;20028;-77
2021/10/14 02:56:05;;;;;;;11.63;6.95;;;7.90;81.00;;;;;;5077054;28;20436;-76
2021/10/14 02:58:31;;;;;;;9.38;5.43;;;7.90;81.00;;;;;;5075983;28;20029;-77
2021/10/14 03:00:57;;;;;;;12.57;5.82;;;7.90;81.00;;;;;;5080230;28;20024;-76
2021/10/14 03:03:22;;;;;;;9.50;5.72;;;7.90;81.20;;;;;;5086957;28;20021;-76
2021/10/14 03:05:48;;;;;;;10.52;6.03;;;7.90;81.30;;;;;;5077106;28;20024;-76
2021/10/14 03:08:14;;;;;;;12.88;6.25;;;7.90;81.10;;;;;;5086948;28;20024;-76
2021/10/14 03:10:40;;;;;;;10.65;6.22;;;7.90;81.10;;;;;;5080046;28;20024;-76
2021/10/14 03:13:06;;;;;;;10.55;5.60;;;7.90;81.20;;;;;;5077244;28;20025;-77
2021/10/14 03:15:31;;;;;;;13.02;6.55;;;7.90;81.20;;;;;;5075825;28;20029;-76
2021/10/14 03:17:57;;;;;;;13.25;6.80;;;7.80;81.30;;;;;;5076931;28;20017;-77
2021/10/14 03:20:23;;;;;;;13.02;6.60;;;7.90;81.60;;;;;;5080771;28;20031;-77
2021/10/14 03:22:49;;;;;;;12.77;6.80;;;7.90;81.70;;;;;;5086601;28;20020;-77
2021/10/14 03:25:14;;;;;;;11.25;6.15;;;7.80;81.60;;;;;;5076714;28;20031;-76
2021/10/14 03:27:40;;;;;;;13.48;7.57;;;7.80;81.60;;;;;;5077072;28;20380;-76
2021/10/14 03:30:06;;;;;;;13.02;7.95;;;7.80;81.60;;;;;;5075493;28;21157;-76
2021/10/14 03:32:32;;;;;;;15.15;8.18;;;7.90;81.80;;;;;;5084066;28;20111;-77
2021/10/14 03:34:58;;;;;;;17.50;9.00;;;7.90;82.00;;;;;;5092804;28;20071;-76
2021/10/14 03:37:24;;;;;;;16.08;9.35;;;7.90;82.00;;;;;;5079270;28;20043;-77
2021/10/14 03:39:50;;;;;;;13.57;8.90;;;7.90;81.70;;;;;;5080408;28;20025;-77
2021/10/14 03:42:16;;;;;;;22.90;9.73;;;7.90;82.20;;;;;;5084534;28;20019;-77
2021/10/14 03:44:42;;;;;;;15.93;8.60;;;7.90;82.30;;;;;;5095830;28;20029;-77
2021/10/14 03:47:08;;;;;;;13.18;8.55;;;7.90;82.30;;;;;;5080441;28;20025;-76
2021/10/14 03:49:34;;;;;;;15.73;8.48;;;7.90;82.40;;;;;;5080348;28;20107;-76
2021/10/14 03:52:00;;;;;;;12.55;8.30;;;8.00;82.50;;;;;;5080444;28;20024;-77
2021/10/14 03:54:25;;;;;;;13.07;8.23;;;8.00;82.70;;;;;;5080029;28;20096;-77
2021/10/14 03:56:51;;;;;;;14.75;8.18;;;8.00;82.90;;;;;;5080527;28;20378;-76
2021/10/14 03:59:17;;;;;;;12.05;7.30;;;8.00;82.70;;;;;;5080038;28;20029;-77
2021/10/14 04:01:43;;;;;;;12.02;7.70;;;8.00;82.90;;;;;;5089528;28;20062;-77
2021/10/14 04:04:08;;;;;;;12.48;8.00;;;8.00;82.90;;;;;;5083916;28;20043;-76
2021/10/14 04:06:34;;;;;;;11.90;7.10;;;8.10;83.00;;;;;;5080302;28;20091;-77
2021/10/14 04:09:00;;;;;;;10.25;6.72;;;8.10;82.90;;;;;;5093380;28;20020;-77
2021/10/14 04:11:26;;;;;;;10.48;6.28;;;8.10;82.90;;;;;;5089947;28;20024;-77
2021/10/14 04:13:51;;;;;;;9.40;6.00;;;8.00;83.10;;;;;;5082365;28;20077;-76
2021/10/14 04:16:17;;;;;;;8.85;6.10;;;8.10;83.40;;;;;;5080019;28;20027;-76
2021/10/14 04:18:43;;;;;;;8.75;5.80;;;8.10;83.40;;;;;;5079564;28;20108;-76
2021/10/14 04:21:09;;;;;;;6.82;5.35;;;8.10;83.60;;;;;;5090011;28;20047;-77
2021/10/14 04:23:35;;;;;;;7.28;5.50;;;8.10;83.60;;;;;;5082938;28;20032;-76
2021/10/14 04:26:01;;;;;;;9.35;5.57;;;8.00;83.40;;;;;;5079925;28;20074;-76
2021/10/14 04:28:26;;;;;;;7.68;5.75;;;8.10;83.40;;;;;;5079698;28;20025;-76
2021/10/14 04:30:52;;;;;;;7.38;5.82;;;8.10;84.10;;;;;;5079697;28;20032;-79
2021/10/14 04:33:18;;;;;;;6.55;5.03;;;8.10;83.80;;;;;;5091753;28;20050;-78
2021/10/14 04:35:45;;;;;;;7.47;5.30;;;8.10;83.90;;;;;;5088817;28;20173;-80
2021/10/14 04:38:11;;;;;;;9.13;5.43;;;8.10;83.60;;;;;;5079498;28;20435;-79
2021/10/14 04:40:38;;;;;;;7.53;5.45;;;8.10;83.70;;;;;;5079622;28;20083;-79
2021/10/14 04:43:04;;;;;;;7.60;5.63;;;8.10;83.90;;;;;;5090036;28;20505;-79
2021/10/14 04:45:29;;;;;;;8.98;5.93;;;8.10;83.80;;;;;;5088195;28;20033;-80
2021/10/14 04:47:55;;;;;;;8.63;5.70;;;8.10;84.10;;;;;;5078430;28;20096;-79
2021/10/14 04:50:21;;;;;;;8.65;6.18;;;8.10;84.10;;;;;;5079311;28;20069;-78
2021/10/14 04:52:47;;;;;;;8.68;5.80;;;8.10;84.40;;;;;;5079059;28;20024;-78
2021/10/14 04:55:13;;;;;;;8.70;5.70;;;8.00;84.10;;;;;;5079025;28;20054;-81
2021/10/14 04:57:38;;;;;;;8.45;5.35;;;8.00;84.10;;;;;;5083638;28;20020;-76
2021/10/14 05:00:05;;;;;;;7.15;5.40;;;8.10;84.30;;;;;;5087802;28;20084;-79
2021/10/14 05:02:31;;;;;;;9.25;6.38;;;8.00;84.30;;;;;;5092253;28;20382;-80
2021/10/14 05:04:57;;;;;;;8.65;6.18;;;8.10;84.50;;;;;;5077951;28;20119;-80
2021/10/14 05:07:22;;;;;;;9.63;6.03;;;8.00;84.30;;;;;;5081572;28;20024;-78
2021/10/14 05:09:48;;;;;;;10.25;6.38;;;8.00;84.00;;;;;;5088805;28;20050;-77
2021/10/14 05:12:15;;;;;;;9.70;6.18;;;8.10;83.80;;;;;;5078687;28;20036;-77
2021/10/14 05:14:41;;;;;;;10.70;6.65;;;8.10;83.40;;;;;;5076806;28;20437;-77
2021/10/14 05:17:07;;;;;;;9.77;6.30;;;8.10;83.40;;;;;;5078386;28;20020;-77
2021/10/14 05:19:32;;;;;;;13.07;6.35;;;8.10;83.80;;;;;;5078426;28;20036;-77
2021/10/14 05:21:58;;;;;;;14.07;7.65;;;8.10;83.40;;;;;;5090761;28;20027;-77
2021/10/14 05:24:24;;;;;;;13.48;8.35;;;8.10;84.70;;;;;;5078724;28;20028;-77
2021/10/14 05:26:50;;;;;;;12.35;7.68;;;8.10;85.10;;;;;;5078479;28;20016;-77
2021/10/14 05:29:16;;;;;;;12.00;7.28;;;8.10;84.70;;;;;;5078545;28;20122;-77
2021/10/14 05:31:41;;;;;;;11.88;7.00;;;8.00;83.80;;;;;;5078441;28;20021;-77
2021/10/14 05:34:07;;;;;;;9.85;6.72;;;8.00;83.30;;;;;;5097595;28;20024;-77
2021/10/14 05:36:33;;;;;;;10.02;7.13;;;8.10;83.20;;;;;;5080574;28;20044;-77
2021/10/14 05:38:59;;;;;;;10.80;6.90;;;8.10;83.60;;;;;;5078233;28;20111;-77
2021/10/14 05:41:24;;;;;;;11.32;7.22;;;8.00;83.20;;;;;;5078149;28;20052;-78
2021/10/14 05:43:50;;;;;;;10.07;6.75;;;8.10;83.40;;;;;;5095431;28;20032;-77
2021/10/14 05:46:16;;;;;;;9.98;6.90;;;8.00;83.20;;;;;;5079994;28;20046;-78
2021/10/14 05:48:42;;;;;;;9.65;6.38;;;8.00;83.30;;;;;;5076922;28;20420;-77
2021/10/14 05:51:07;;;;;;;9.75;5.90;;;8.00;82.90;;;;;;5077967;28;20021;-78
2021/10/14 05:53:33;;;;;;;11.48;7.00;;;8.00;83.30;;;;;;5077806;28;20020;-78
2021/10/14 05:55:59;;;;;;;11.02;6.85;;;8.00;83.40;;;;;;5077854;28;20025;-77
2021/10/14 05:58:25;;;;;;;10.75;6.40;;;7.90;83.20;;;;;;5077649;28;20024;-77
2021/10/14 06:00:51;;;;;;;10.25;6.68;;;7.90;83.20;;;;;;5079798;28;20070;-77
2021/10/14 06:03:17;;;;;;;11.15;6.30;;;7.90;83.30;;;;;;5088861;28;20025;-77
2021/10/14 06:05:42;;;;;;;9.45;5.65;;;7.90;83.50;;;;;;5077938;28;20060;-78
2021/10/14 06:08:08;;;;;;;11.43;7.10;;;7.90;83.50;;;;;;5087123;28;20024;-77
2021/10/14 06:10:34;;;;;;;9.20;6.80;;;7.80;83.20;;;;;;5080519;28;20395;-78
2021/10/14 06:13:00;;;;;;;10.25;6.57;;;7.80;83.20;;;;;;5077825;28;20432;-77
2021/10/14 06:15:26;;;;;;;9.80;6.43;;;7.90;83.00;;;;;;5077426;28;20031;-77
2021/10/14 06:17:51;;;;;;;9.50;6.05;;;7.80;82.60;;;;;;5077467;28;20024;-78
2021/10/14 06:20:17;;;;;;;8.95;6.43;;;7.80;82.30;;;;;;5080212;28;20017;-77
2021/10/14 06:22:43;;;;;;;10.23;6.40;;;7.80;82.50;;;;;;5088439;28;20020;-77
2021/10/14 06:25:09;;;;;;;10.07;7.03;;;7.80;82.50;;;;;;5077422;28;20035;-77
2021/10/14 06:27:35;;;;;;;10.88;7.45;;;7.80;82.60;;;;;;5077577;28;20107;-77
2021/10/14 06:30:01;;;;;;;11.75;7.47;;;7.80;83.10;;;;;;5077589;28;20027;-77
2021/10/14 06:32:27;;;;;;;10.68;8.00;;;7.80;83.20;;;;;;5084015;28;20394;-77
2021/10/14 06:34:54;;;;;;;10.63;7.78;;;7.80;83.20;;;;;;5095049;28;20036;-77
2021/10/14 06:37:20;;;;;;;11.63;8.10;;;7.80;83.30;;;;;;5077261;28;20049;-77
2021/10/14 06:39:46;;;;;;;11.15;7.28;;;7.80;83.70;;;;;;5077263;28;20036;-77
2021/10/14 06:42:12;;;;;;;11.77;7.18;;;7.80;83.20;;;;;;5080819;28;20020;-77
2021/10/14 06:44:38;;;;;;;14.48;7.20;;;7.80;83.20;;;;;;5094421;28;20035;-77
2021/10/14 06:47:03;;;;;;;10.30;6.82;;;7.80;82.90;;;;;;5077114;28;20025;-77
2021/10/14 06:49:29;;;;;;;11.02;6.53;;;7.70;82.90;;;;;;5075910;28;20119;-77
2021/10/14 06:51:56;;;;;;;9.77;6.55;;;7.70;83.00;;;;;;5077261;28;20029;-77
2021/10/14 06:54:22;;;;;;;11.68;6.90;;;7.70;83.00;;;;;;5076986;28;20032;-77
2021/10/14 06:56:48;;;;;;;11.43;7.53;;;7.70;83.10;;;;;;5077388;28;20479;-77
2021/10/14 06:59:15;;;;;;;13.43;7.63;;;7.60;83.30;;;;;;5075886;28;20089;-77
2021/10/14 07:01:41;;;;;;;13.13;7.43;;;7.60;83.40;;;;;;5086265;28;20021;-77
2021/10/14 07:04:07;;;;;;;9.55;7.30;;;7.60;83.80;;;;;;5081089;28;20020;-77
2021/10/14 07:06:33;;;;;;;11.07;7.57;;;7.60;84.00;;;;;;5077165;28;20394;-77
2021/10/14 07:08:59;;;;;;;11.82;7.82;;;7.60;84.20;;;;;;5090425;28;20147;-77
2021/10/14 07:11:30;;;;;;;11.15;6.82;;;7.60;84.30;;;;;;5079946;28;20016;-77
2021/10/14 07:13:57;;;;;;;13.50;7.43;;;7.60;84.40;;;;;;5079676;28;20514;-77
2021/10/14 07:16:22;;;;;;;10.70;6.63;;;7.70;84.30;;;;;;5080786;28;20037;-77
2021/10/14 07:18:48;;;;;;;12.18;7.32;;;7.70;84.30;;;;;;5080929;28;20540;-77
2021/10/14 07:21:14;;;;;;;10.05;6.57;;;7.80;84.10;;;;;;5091216;28;20028;-77
2021/10/14 07:23:40;;;;;;;13.00;7.30;;;7.80;84.40;;;;;;5083589;28;20495;-77
2021/10/14 07:26:06;;;;;;;11.35;6.63;;;7.90;83.90;;;;;;5080903;28;20025;-76
2021/10/14 07:28:31;;;;;;;12.70;7.30;;;7.90;83.70;;;;;;5080680;28;20035;-77
2021/10/14 07:30:57;;;;;;;11.52;6.78;;;7.90;83.50;;;;;;5080803;28;20024;-77
2021/10/14 07:33:23;;;;;;;9.45;6.22;;;8.00;83.40;;;;;;5094868;28;20394;-77
2021/10/14 07:35:49;;;;;;;10.27;6.57;;;8.00;83.30;;;;;;5089939;28;20036;-77
2021/10/14 07:38:15;;;;;;;14.10;8.35;;;8.00;83.30;;;;;;5080484;28;20642;-77
2021/10/14 07:40:42;;;;;;;13.57;7.85;;;8.10;83.40;;;;;;5079131;28;20048;-77
2021/10/14 07:43:11;;;;;;;10.57;7.47;;;8.10;83.40;;;;;;5091757;28;20045;-77
2021/10/14 07:45:37;;;;;;;11.73;7.78;;;8.20;83.20;;;;;;5089626;28;20035;-77
2021/10/14 07:48:03;;;;;;;12.77;7.45;;;8.20;83.30;;;;;;5079942;28;20031;-77
2021/10/14 07:50:30;;;;;;;12.55;7.63;;;8.20;83.20;;;;;;5080471;28;20028;-77
2021/10/14 07:52:56;;;;;;;11.95;7.28;;;8.30;83.40;;;;;;5080260;28;20036;-77
2021/10/14 07:55:22;;;;;;;11.05;7.10;;;8.30;83.50;;;;;;5080311;28;20039;-77
2021/10/14 07:57:47;;;;;;;12.52;7.75;;;8.40;83.40;;;;;;5080147;28;20076;-77
2021/10/14 08:00:14;;;;;;;11.63;7.70;;;8.40;83.30;;;;;;5080162;28;20028;-77
2021/10/14 08:02:40;;;;;;;11.85;7.80;;;8.50;83.60;;;;;;5078318;28;20025;-77
2021/10/14 08:05:06;;;;;;;11.73;8.07;;;8.50;83.70;;;;;;5080400;28;20532;-76
2021/10/14 08:07:32;;;;;;;11.48;7.88;;;8.60;83.70;;;;;;5084175;28;20020;-77
2021/10/14 08:09:59;;;;;;;14.50;9.13;;;8.70;84.10;;;;;;5089432;28;20031;-76
2021/10/14 08:12:26;;;;;;;11.48;8.32;;;8.80;84.00;;;;;;5079743;28;20028;-76
2021/10/14 08:14:52;;;;;;;19.45;13.52;;;8.80;84.00;;;;;;5079985;28;20088;-76
2021/10/14 08:17:19;;;;;;;19.02;13.27;;;8.80;84.60;;;;;;5079578;28;20021;-77
2021/10/14 08:19:45;;;;;;;14.45;10.95;;;8.80;84.90;;;;;;5079956;28;20056;-76
2021/10/14 08:22:11;;;;;;;13.93;10.52;;;8.80;85.00;;;;;;5090883;28;20027;-77
2021/10/14 08:24:39;;;;;;;14.32;9.48;;;8.80;84.70;;;;;;5079761;28;20080;-77
2021/10/14 08:27:05;;;;;;;12.70;8.75;;;8.80;84.50;;;;;;5079565;28;20024;-77
2021/10/14 08:29:31;;;;;;;14.27;9.07;;;8.80;84.40;;;;;;5079756;28;20492;-77
2021/10/14 08:31:57;;;;;;;13.60;8.77;;;8.80;84.30;;;;;;5081641;28;20526;-77
2021/10/14 08:34:23;;;;;;;11.35;8.68;;;8.80;84.40;;;;;;5098962;28;20028;-77
2021/10/14 08:36:49;;;;;;;11.07;8.57;;;8.90;84.50;;;;;;5079929;28;20033;-77
2021/10/14 08:39:15;;;;;;;11.02;8.70;;;8.90;84.50;;;;;;5079599;28;20497;-77
2021/10/14 08:41:44;;;;;;;19.30;10.35;;;8.90;84.30;;;;;;5078414;28;20024;-76
2021/10/14 08:44:13;;;;;;;19.52;9.88;;;9.00;84.90;;;;;;5099195;28;20060;-76
2021/10/14 08:46:41;;;;;;;15.68;9.77;;;9.10;85.40;;;;;;5079301;28;20074;-77
2021/10/14 08:49:09;;;;;;;16.20;11.05;;;9.20;85.90;;;;;;5079332;28;20103;-77
2021/10/14 08:51:35;;;;;;;16.15;9.30;;;9.40;86.10;;;;;;5078088;28;20024;-77
2021/10/14 08:54:01;;;;;;;11.75;8.82;;;9.70;86.70;;;;;;5079260;28;20059;-79
2021/10/14 08:56:29;;;;;;;16.52;12.40;;;10.00;86.20;;;;;;5078983;28;20025;-79
2021/10/14 08:58:55;;;;;;;46.33;28.85;;;10.50;87.40;;;;;;5079343;28;20028;-78
2021/10/14 09:01:21;;;;;;;20.35;12.77;;;11.20;88.20;;;;;;5088540;28;20487;-79
2021/10/14 09:03:52;;;;;;;17.88;9.88;;;11.80;86.10;;;;;;5094179;28;20097;-79
2021/10/14 09:06:21;;;;;;;12.90;8.70;;;12.20;84.40;;;;;;5096322;28;20162;-80
2021/10/14 09:08:50;;;;;;;9.55;7.15;;;12.50;84.00;;;;;;5086390;28;20056;-78
2021/10/14 09:11:22;;;;;;;11.65;6.38;;;12.90;83.30;;;;;;5097246;28;20101;-78
2021/10/14 09:13:50;;;;;;;9.87;6.63;;;13.40;83.00;;;;;;5098701;28;20028;-79
2021/10/14 09:16:37;;;;;;;10.30;6.63;;;13.80;82.10;;;;;;5097127;28;20058;-78
2021/10/14 09:19:11;;;;;;;11.43;6.35;;;14.20;81.80;;;;;;5097499;28;20020;-79
2021/10/14 09:21:36;;;;;;;11.63;6.38;;;14.70;82.30;;;;;;5088847;28;20134;-78
2021/10/14 09:24:25;;;;;;;8.73;6.22;;;15.10;80.90;;;;;;5097438;28;20052;-79
2021/10/14 09:26:51;;;;;;;10.55;5.45;;;15.50;77.90;;;;;;5098554;28;20091;-78
2021/10/14 09:29:21;;;;;;;10.23;5.72;;;15.70;76.80;;;;;;5098599;28;20028;-79
2021/10/14 09:31:57;;;;;;;8.55;5.55;;;15.80;74.60;;;;;;5098114;28;20543;-79
2021/10/14 09:34:24;;;;;;;10.77;5.10;;;15.80;73.30;;;;;;5094643;28;20026;-79
2021/10/14 09:36:50;;;;;;;10.77;5.47;;;15.70;74.00;;;;;;5098229;28;20103;-79
2021/10/14 09:39:16;;;;;;;11.80;6.68;;;15.90;74.50;;;;;;5098423;28;20513;-79
2021/10/14 09:41:43;;;;;;;9.77;6.22;;;16.30;74.00;;;;;;5098305;28;20028;-79
2021/10/14 09:44:15;;;;;;;10.98;5.50;;;16.80;74.20;;;;;;5091374;28;20020;-77
2021/10/14 09:46:46;;;;;;;10.70;5.90;;;17.00;72.60;;;;;;5092044;28;20098;-78
2021/10/14 09:49:15;;;;;;;9.98;5.47;;;17.10;71.50;;;;;;5098228;28;20039;-78
2021/10/14 09:51:43;;;;;;;11.40;6.28;;;17.10;71.60;;;;;;5098366;28;20028;-79
2021/10/14 09:54:09;;;;;;;7.55;5.85;;;17.10;70.80;;;;;;5097936;28;20028;-79
2021/10/14 09:56:35;;;;;;;9.40;5.97;;;17.30;70.90;;;;;;5098469;28;20027;-79
2021/10/14 09:59:02;;;;;;;11.80;5.53;;;17.80;72.40;;;;;;5097556;28;20027;-79
2021/10/14 10:01:30;;;;;;;9.00;5.57;;;18.40;72.60;;;;;;5093621;28;20081;-79
2021/10/14 10:03:57;;;;;;;9.02;4.82;;;19.00;71.00;;;;;;5098034;28;20012;-79
2021/10/14 10:06:26;;;;;;;8.50;5.15;;;19.70;69.80;;;;;;5097941;28;20024;-79
2021/10/14 10:08:55;;;;;;;7.60;5.07;;;20.20;70.10;;;;;;5093845;28;20020;-79
2021/10/14 10:11:23;;;;;;;9.65;5.18;;;20.80;65.90;;;;;;5097818;28;20058;-79
2021/10/14 10:13:52;;;;;;;10.50;5.60;;;21.20;65.20;;;;;;5097574;28;20024;-79
2021/10/14 10:16:19;;;;;;;9.88;5.15;;;21.60;65.70;;;;;;5096311;28;20028;-79
2021/10/14 10:18:56;;;;;;;6.65;4.55;;;21.90;65.00;;;;;;5097806;28;20020;-79
2021/10/14 10:21:31;;;;;;;8.63;4.45;;;22.20;64.30;;;;;;5089736;28;20107;-79
2021/10/14 10:24:04;;;;;;;8.40;4.28;;;22.50;63.20;;;;;;5097354;28;20027;-79
2021/10/14 10:26:35;;;;;;;8.52;4.53;;;22.80;62.70;;;;;;5096449;28;20051;-79
2021/10/14 10:29:15;;;;;;;10.32;4.75;;;23.20;59.30;;;;;;5097414;28;20032;-79
2021/10/14 10:31:51;;;;;;;9.68;4.20;;;23.30;59.00;;;;;;5097309;28;20028;-79
2021/10/14 10:34:30;;;;;;;10.55;4.35;;;23.60;59.10;;;;;;5089437;28;20031;-79
2021/10/14 10:37:09;;;;;;;6.28;4.15;;;23.80;58.60;;;;;;5092929;28;20042;-79
2021/10/14 10:39:51;;;;;;;10.32;4.70;;;24.00;57.40;;;;;;5097468;28;20456;-79
2021/10/14 10:42:38;;;;;;;8.43;3.85;;;24.10;56.20;;;;;;5097346;28;20047;-79
2021/10/14 10:45:19;;;;;;;9.85;4.15;;;24.10;53.90;;;;;;5087304;28;20028;-78
2021/10/14 10:47:53;;;;;;;8.30;4.38;;;24.30;55.10;;;;;;5090679;28;20456;-79
2021/10/14 10:50:23;;;;;;;9.40;4.40;;;24.40;54.90;;;;;;5077395;28;20033;-79
2021/10/14 10:53:03;;;;;;;7.97;4.00;;;24.60;55.80;;;;;;5076812;28;20032;-79
2021/10/14 10:55:29;;;;;;;8.32;4.40;;;24.80;55.10;;;;;;5076784;28;20086;-79
2021/10/14 10:57:55;;;;;;;9.50;4.78;;;24.80;55.00;;;;;;5077225;28;20017;-79
2021/10/14 11:00:23;;;;;;;7.40;3.72;;;25.00;53.70;;;;;;5077180;28;20036;-79
2021/10/14 11:03:07;;;;;;;8.98;4.50;;;25.00;52.20;;;;;;5090180;28;20020;-79
2021/10/14 11:05:45;;;;;;;11.52;4.72;;;25.20;51.60;;;;;;5077088;28;20085;-79
2021/10/14 11:08:16;;;;;;;9.50;4.78;;;25.20;51.80;;;;;;5086647;28;20099;-79
2021/10/14 11:10:42;;;;;;;7.57;4.13;;;25.40;52.40;;;;;;5079864;28;20031;-79
2021/10/14 11:13:08;;;;;;;8.77;4.47;;;25.50;53.10;;;;;;5077104;28;20104;-79
2021/10/14 11:15:33;;;;;;;9.23;4.70;;;25.70;52.50;;;;;;5076760;28;20040;-79
2021/10/14 11:18:04;;;;;;;9.18;4.32;;;25.80;51.90;;;;;;5076792;28;20070;-79
2021/10/14 11:20:31;;;;;;;9.35;4.15;;;25.90;51.20;;;;;;5080374;28;20024;-79
2021/10/14 11:23:08;;;;;;;11.10;4.85;;;26.00;51.40;;;;;;5084740;28;20052;-79
2021/10/14 11:25:35;;;;;;;15.48;5.25;;;26.10;50.90;;;;;;5077016;28;20434;-79
2021/10/14 11:28:08;;;;;;;8.43;4.20;;;26.00;48.30;;;;;;5075791;28;20479;-79
2021/10/14 11:30:39;;;;;;;12.27;4.72;;;26.00;50.50;;;;;;5077229;28;20024;-79
2021/10/14 11:33:11;;;;;;;10.90;4.32;;;25.90;50.40;;;;;;5088418;28;20051;-79
2021/10/14 11:35:38;;;;;;;8.77;4.68;;;25.90;50.40;;;;;;5087193;28;20048;-79
2021/10/14 11:38:12;;;;;;;8.90;4.78;;;25.90;51.60;;;;;;5076667;28;20040;-78
2021/10/14 11:40:39;;;;;;;10.75;3.70;;;25.90;50.00;;;;;;5076734;28;20073;-79
2021/10/14 11:43:05;;;;;;;8.70;3.75;;;25.80;49.70;;;;;;5087478;28;20498;-79
2021/10/14 11:45:31;;;;;;;12.00;4.07;;;25.70;51.00;;;;;;5085616;28;20029;-78
2021/10/14 11:47:57;;;;;;;12.25;3.83;;;25.70;49.70;;;;;;5076323;28;20029;-78
2021/10/14 11:50:24;;;;;;;8.90;3.65;;;25.50;48.90;;;;;;5076716;28;20032;-78
2021/10/14 11:53:04;;;;;;;7.68;3.53;;;25.20;49.30;;;;;;5076487;28;20031;-79
2021/10/14 11:55:30;;;;;;;11.07;3.42;;;25.00;50.40;;;;;;5076383;28;20479;-79
2021/10/14 11:57:59;;;;;;;7.38;3.35;;;24.70;50.30;;;;;;5078551;28;20017;-79
2021/10/14 12:00:25;;;;;;;6.95;3.35;;;24.50;51.90;;;;;;5080168;28;20025;-78
2021/10/14 12:02:51;;;;;;;8.80;3.35;;;24.40;51.60;;;;;;5093185;28;20021;-79
2021/10/14 12:05:17;;;;;;;10.85;3.47;;;24.40;51.50;;;;;;5080359;28;20025;-78
2021/10/14 12:07:44;;;;;;;9.60;3.42;;;24.40;50.90;;;;;;5085470;28;20056;-78
2021/10/14 12:10:37;;;;;;;7.65;3.30;;;24.40;50.70;;;;;;5086061;28;20028;-78
2021/10/14 12:13:04;;;;;;;11.25;3.45;;;24.40;50.90;;;;;;5090310;28;20023;-79
2021/10/14 12:15:31;;;;;;;7.95;3.10;;;24.40;49.20;;;;;;5083029;28;20027;-79
2021/10/14 12:17:57;;;;;;;10.77;3.83;;;24.30;48.90;;;;;;5079769;28;20021;-78
2021/10/14 12:20:25;;;;;;;7.47;3.70;;;24.30;49.20;;;;;;5083589;28;20031;-78
2021/10/14 12:22:53;;;;;;;8.10;2.97;;;24.30;50.80;;;;;;5089254;28;20075;-78
2021/10/14 12:25:28;;;;;;;7.88;2.90;;;24.30;50.60;;;;;;5079568;28;20020;-78
2021/10/14 12:27:58;;;;;;;8.18;2.70;;;24.30;48.80;;;;;;5079686;28;20498;-79
2021/10/14 12:30:30;;;;;;;12.00;2.60;;;24.40;49.70;;;;;;5079712;28;20055;-78
2021/10/14 12:33:18;;;;;;;7.72;2.30;;;24.40;46.40;;;;;;5089960;28;20031;-78
2021/10/14 12:35:54;;;;;;;10.73;3.95;;;24.30;47.30;;;;;;5089264;28;20053;-78
2021/10/14 12:38:21;;;;;;;8.00;2.78;;;24.30;47.00;;;;;;5079444;28;20024;-78
2021/10/14 12:40:59;;;;;;;5.32;2.45;;;24.30;47.40;;;;;;5079550;28;20467;-78
2021/10/14 12:43:30;;;;;;;7.25;2.60;;;24.20;47.00;;;;;;5093212;28;20020;-78
2021/10/14 12:46:12;;;;;;;10.15;3.25;;;24.10;47.60;;;;;;5083597;28;20075;-78
2021/10/14 12:49:11;;;;;;;5.25;2.70;;;24.00;47.30;;;;;;5079566;28;20073;-78
2021/10/14 12:51:25;;;;;;;11.57;3.15;;;23.80;46.40;;;;;;5078857;28;20043;-78